sensor_id;sensor_type;location;lat;lon;timestamp;P1;durP1;ratioP1;P2;durP2;ratioP2
18076;SDS011;9165;45.714;11.362;2023-12-20T00:00:14;6.33;;;4.47;;
18076;SDS011;9165;45.714;11.362;2023-12-20T00:02:41;8.67;;;4.27;;
18076;SDS011;9165;45.714;11.362;2023-12-20T00:05:11;9.67;;;4.73;;
18076;SDS011;9165;45.714;11.362;2023-12-20T00:07:38;4.93;;;3.23;;
18076;SDS011;9165;45.714;11.362;2023-12-20T00:10:05;7.50;;;3.73;;
18076;SDS011;9165;45.714;11.362;2023-12-20T00:12:32;7.23;;;3.40;;
18076;SDS011;9165;45.714;11.362;2023-12-20T00:15:00;5.90;;;3.23;;
18076;SDS011;9165;45.714;11.362;2023-12-20T00:17:27;6.33;;;3.23;;
18076;SDS011;9165;45.714;11.362;2023-12-20T00:19:53;3.60;;;2.73;;
18076;SDS011;9165;45.714;11.362;2023-12-20T00:22:20;5.30;;;2.87;;
18076;SDS011;9165;45.714;11.362;2023-12-20T00:24:46;6.43;;;3.00;;
18076;SDS011;9165;45.714;11.362;2023-12-20T00:27:13;4.37;;;2.70;;
18076;SDS011;9165;45.714;11.362;2023-12-20T00:29:39;5.53;;;2.57;;
18076;SDS011;9165;45.714;11.362;2023-12-20T00:32:09;7.40;;;3.30;;
18076;SDS011;9165;45.714;11.362;2023-12-20T00:34:36;4.83;;;2.67;;
18076;SDS011;9165;45.714;11.362;2023-12-20T00:37:02;5.27;;;2.80;;
18076;SDS011;9165;45.714;11.362;2023-12-20T00:39:29;4.53;;;2.70;;
18076;SDS011;9165;45.714;11.362;2023-12-20T00:41:55;4.37;;;2.90;;
18076;SDS011;9165;45.714;11.362;2023-12-20T00:44:22;3.50;;;2.47;;
18076;SDS011;9165;45.714;11.362;2023-12-20T00:46:48;3.93;;;2.63;;
18076;SDS011;9165;45.714;11.362;2023-12-20T00:49:16;6.27;;;2.30;;
18076;SDS011;9165;45.714;11.362;2023-12-20T00:51:43;4.40;;;2.40;;
18076;SDS011;9165;45.714;11.362;2023-12-20T00:54:09;4.23;;;2.70;;
18076;SDS011;9165;45.714;11.362;2023-12-20T00:56:36;5.20;;;3.00;;
18076;SDS011;9165;45.714;11.362;2023-12-20T00:59:02;4.17;;;2.70;;
18076;SDS011;9165;45.714;11.362;2023-12-20T01:01:29;4.23;;;2.77;;
18076;SDS011;9165;45.714;11.362;2023-12-20T01:03:58;5.23;;;2.83;;
18076;SDS011;9165;45.714;11.362;2023-12-20T01:06:26;3.13;;;2.27;;
18076;SDS011;9165;45.714;11.362;2023-12-20T01:08:52;5.80;;;2.80;;
18076;SDS011;9165;45.714;11.362;2023-12-20T01:11:19;4.90;;;2.30;;
18076;SDS011;9165;45.714;11.362;2023-12-20T01:13:45;3.90;;;2.83;;
18076;SDS011;9165;45.714;11.362;2023-12-20T01:16:12;5.80;;;2.60;;
18076;SDS011;9165;45.714;11.362;2023-12-20T01:18:38;3.13;;;2.40;;
18076;SDS011;9165;45.714;11.362;2023-12-20T01:21:05;3.60;;;2.20;;
18076;SDS011;9165;45.714;11.362;2023-12-20T01:23:33;4.37;;;2.80;;
18076;SDS011;9165;45.714;11.362;2023-12-20T01:25:59;3.10;;;2.10;;
18076;SDS011;9165;45.714;11.362;2023-12-20T01:28:27;3.53;;;2.30;;
18076;SDS011;9165;45.714;11.362;2023-12-20T01:30:54;2.77;;;2.03;;
18076;SDS011;9165;45.714;11.362;2023-12-20T01:33:20;5.13;;;2.10;;
18076;SDS011;9165;45.714;11.362;2023-12-20T01:35:47;5.80;;;2.20;;
18076;SDS011;9165;45.714;11.362;2023-12-20T01:38:13;4.93;;;2.43;;
18076;SDS011;9165;45.714;11.362;2023-12-20T01:40:41;4.67;;;2.30;;
18076;SDS011;9165;45.714;11.362;2023-12-20T01:43:08;2.47;;;1.90;;
18076;SDS011;9165;45.714;11.362;2023-12-20T01:45:37;3.10;;;2.03;;
18076;SDS011;9165;45.714;11.362;2023-12-20T01:48:04;3.03;;;2.47;;
18076;SDS011;9165;45.714;11.362;2023-12-20T01:50:31;3.30;;;2.10;;
18076;SDS011;9165;45.714;11.362;2023-12-20T01:52:58;3.27;;;2.20;;
18076;SDS011;9165;45.714;11.362;2023-12-20T01:55:26;4.10;;;2.33;;
18076;SDS011;9165;45.714;11.362;2023-12-20T01:57:55;3.07;;;1.80;;
18076;SDS011;9165;45.714;11.362;2023-12-20T02:00:22;2.60;;;1.80;;
18076;SDS011;9165;45.714;11.362;2023-12-20T02:02:51;2.80;;;2.30;;
18076;SDS011;9165;45.714;11.362;2023-12-20T02:05:19;2.90;;;2.10;;
18076;SDS011;9165;45.714;11.362;2023-12-20T02:07:45;2.30;;;1.60;;
18076;SDS011;9165;45.714;11.362;2023-12-20T02:10:12;3.30;;;1.77;;
18076;SDS011;9165;45.714;11.362;2023-12-20T02:12:40;2.80;;;1.90;;
18076;SDS011;9165;45.714;11.362;2023-12-20T02:15:08;3.17;;;2.00;;
18076;SDS011;9165;45.714;11.362;2023-12-20T02:17:35;3.53;;;2.03;;
18076;SDS011;9165;45.714;11.362;2023-12-20T02:20:02;3.90;;;1.90;;
18076;SDS011;9165;45.714;11.362;2023-12-20T02:22:32;2.37;;;1.77;;
18076;SDS011;9165;45.714;11.362;2023-12-20T02:24:58;1.87;;;1.67;;
18076;SDS011;9165;45.714;11.362;2023-12-20T02:27:25;26.07;;;4.60;;
18076;SDS011;9165;45.714;11.362;2023-12-20T02:29:51;27.10;;;9.60;;
18076;SDS011;9165;45.714;11.362;2023-12-20T02:32:18;2.30;;;1.90;;
18076;SDS011;9165;45.714;11.362;2023-12-20T02:34:45;8.47;;;1.93;;
18076;SDS011;9165;45.714;11.362;2023-12-20T02:37:12;3.50;;;1.60;;
18076;SDS011;9165;45.714;11.362;2023-12-20T02:39:40;3.37;;;2.00;;
18076;SDS011;9165;45.714;11.362;2023-12-20T02:42:06;20.30;;;5.23;;
18076;SDS011;9165;45.714;11.362;2023-12-20T02:44:33;22.30;;;3.23;;
18076;SDS011;9165;45.714;11.362;2023-12-20T02:46:59;7.03;;;2.10;;
18076;SDS011;9165;45.714;11.362;2023-12-20T02:49:26;2.80;;;2.20;;
18076;SDS011;9165;45.714;11.362;2023-12-20T02:51:53;2.43;;;2.00;;
18076;SDS011;9165;45.714;11.362;2023-12-20T02:54:19;57.27;;;5.50;;
18076;SDS011;9165;45.714;11.362;2023-12-20T02:56:47;2.27;;;1.70;;
18076;SDS011;9165;45.714;11.362;2023-12-20T02:59:14;2.90;;;2.00;;
18076;SDS011;9165;45.714;11.362;2023-12-20T03:01:41;2.00;;;1.53;;
18076;SDS011;9165;45.714;11.362;2023-12-20T03:04:08;4.03;;;1.40;;
18076;SDS011;9165;45.714;11.362;2023-12-20T03:06:35;3.00;;;1.37;;
18076;SDS011;9165;45.714;11.362;2023-12-20T03:09:01;1.77;;;1.57;;
18076;SDS011;9165;45.714;11.362;2023-12-20T03:11:28;3.57;;;2.07;;
18076;SDS011;9165;45.714;11.362;2023-12-20T03:13:56;2.20;;;1.57;;
18076;SDS011;9165;45.714;11.362;2023-12-20T03:16:22;2.37;;;1.43;;
18076;SDS011;9165;45.714;11.362;2023-12-20T03:18:49;3.13;;;1.90;;
18076;SDS011;9165;45.714;11.362;2023-12-20T03:21:15;2.33;;;1.77;;
18076;SDS011;9165;45.714;11.362;2023-12-20T03:23:42;3.33;;;1.60;;
18076;SDS011;9165;45.714;11.362;2023-12-20T03:26:09;1.80;;;1.60;;
18076;SDS011;9165;45.714;11.362;2023-12-20T03:28:35;2.63;;;1.87;;
18076;SDS011;9165;45.714;11.362;2023-12-20T03:31:04;1.53;;;1.43;;
18076;SDS011;9165;45.714;11.362;2023-12-20T03:33:30;23.77;;;1.97;;
18076;SDS011;9165;45.714;11.362;2023-12-20T03:35:57;5.53;;;1.60;;
18076;SDS011;9165;45.714;11.362;2023-12-20T03:38:23;2.60;;;1.60;;
18076;SDS011;9165;45.714;11.362;2023-12-20T03:40:50;3.27;;;1.80;;
18076;SDS011;9165;45.714;11.362;2023-12-20T03:43:16;2.60;;;1.50;;
18076;SDS011;9165;45.714;11.362;2023-12-20T03:45:43;2.73;;;1.73;;
18076;SDS011;9165;45.714;11.362;2023-12-20T03:48:11;8.33;;;2.33;;
18076;SDS011;9165;45.714;11.362;2023-12-20T03:50:38;1.77;;;1.50;;
18076;SDS011;9165;45.714;11.362;2023-12-20T03:53:04;4.50;;;1.90;;
18076;SDS011;9165;45.714;11.362;2023-12-20T03:55:31;3.10;;;1.63;;
18076;SDS011;9165;45.714;11.362;2023-12-20T03:57:57;4.97;;;1.50;;
18076;SDS011;9165;45.714;11.362;2023-12-20T04:00:24;2.97;;;1.70;;
18076;SDS011;9165;45.714;11.362;2023-12-20T04:02:50;2.27;;;1.37;;
18076;SDS011;9165;45.714;11.362;2023-12-20T04:05:19;3.43;;;1.80;;
18076;SDS011;9165;45.714;11.362;2023-12-20T04:07:45;3.13;;;1.80;;
18076;SDS011;9165;45.714;11.362;2023-12-20T04:10:12;2.20;;;1.77;;
18076;SDS011;9165;45.714;11.362;2023-12-20T04:12:39;4.67;;;2.00;;
18076;SDS011;9165;45.714;11.362;2023-12-20T04:15:05;17.83;;;2.93;;
18076;SDS011;9165;45.714;11.362;2023-12-20T04:17:34;2.47;;;1.73;;
18076;SDS011;9165;45.714;11.362;2023-12-20T04:20:00;2.63;;;1.60;;
18076;SDS011;9165;45.714;11.362;2023-12-20T04:22:29;1.83;;;1.60;;
18076;SDS011;9165;45.714;11.362;2023-12-20T04:24:55;3.13;;;1.67;;
18076;SDS011;9165;45.714;11.362;2023-12-20T04:27:22;3.27;;;1.60;;
18076;SDS011;9165;45.714;11.362;2023-12-20T04:29:48;2.00;;;1.40;;
18076;SDS011;9165;45.714;11.362;2023-12-20T04:32:15;2.60;;;1.80;;
18076;SDS011;9165;45.714;11.362;2023-12-20T04:34:41;3.03;;;1.67;;
18076;SDS011;9165;45.714;11.362;2023-12-20T04:37:08;2.63;;;1.70;;
18076;SDS011;9165;45.714;11.362;2023-12-20T04:39:36;10.57;;;1.73;;
18076;SDS011;9165;45.714;11.362;2023-12-20T04:42:03;9.23;;;2.50;;
18076;SDS011;9165;45.714;11.362;2023-12-20T04:44:29;6.63;;;1.93;;
18076;SDS011;9165;45.714;11.362;2023-12-20T04:46:56;2.23;;;1.67;;
18076;SDS011;9165;45.714;11.362;2023-12-20T04:49:22;1.33;;;1.20;;
18076;SDS011;9165;45.714;11.362;2023-12-20T04:51:49;1.90;;;1.70;;
18076;SDS011;9165;45.714;11.362;2023-12-20T04:54:15;2.33;;;1.40;;
18076;SDS011;9165;45.714;11.362;2023-12-20T04:56:43;4.20;;;1.67;;
18076;SDS011;9165;45.714;11.362;2023-12-20T04:59:10;8.80;;;1.57;;
18076;SDS011;9165;45.714;11.362;2023-12-20T05:01:37;3.50;;;1.43;;
18076;SDS011;9165;45.714;11.362;2023-12-20T05:04:03;2.53;;;1.80;;
18076;SDS011;9165;45.714;11.362;2023-12-20T05:06:30;2.17;;;1.50;;
18076;SDS011;9165;45.714;11.362;2023-12-20T05:08:56;2.57;;;1.67;;
18076;SDS011;9165;45.714;11.362;2023-12-20T05:11:23;1.80;;;1.60;;
18076;SDS011;9165;45.714;11.362;2023-12-20T05:13:51;9.47;;;1.80;;
18076;SDS011;9165;45.714;11.362;2023-12-20T05:16:17;2.90;;;1.97;;
18076;SDS011;9165;45.714;11.362;2023-12-20T05:18:44;1.80;;;1.70;;
18076;SDS011;9165;45.714;11.362;2023-12-20T05:21:11;4.27;;;1.83;;
18076;SDS011;9165;45.714;11.362;2023-12-20T05:23:37;4.07;;;2.23;;
18076;SDS011;9165;45.714;11.362;2023-12-20T05:26:04;6.33;;;2.10;;
18076;SDS011;9165;45.714;11.362;2023-12-20T05:28:30;3.13;;;2.07;;
18076;SDS011;9165;45.714;11.362;2023-12-20T05:30:58;3.10;;;2.03;;
18076;SDS011;9165;45.714;11.362;2023-12-20T05:33:25;3.70;;;2.40;;
18076;SDS011;9165;45.714;11.362;2023-12-20T05:35:52;5.53;;;2.23;;
18076;SDS011;9165;45.714;11.362;2023-12-20T05:38:18;3.53;;;2.37;;
18076;SDS011;9165;45.714;11.362;2023-12-20T05:40:45;3.40;;;2.00;;
18076;SDS011;9165;45.714;11.362;2023-12-20T05:43:11;3.83;;;2.40;;
18076;SDS011;9165;45.714;11.362;2023-12-20T05:45:44;3.23;;;2.30;;
18076;SDS011;9165;45.714;11.362;2023-12-20T05:48:12;4.77;;;2.27;;
18076;SDS011;9165;45.714;11.362;2023-12-20T05:50:59;2.13;;;1.70;;
18076;SDS011;9165;45.714;11.362;2023-12-20T05:53:30;4.57;;;2.30;;
18076;SDS011;9165;45.714;11.362;2023-12-20T05:56:16;20.23;;;2.97;;
18076;SDS011;9165;45.714;11.362;2023-12-20T05:58:48;6.77;;;2.60;;
18076;SDS011;9165;45.714;11.362;2023-12-20T06:01:18;4.87;;;2.80;;
18076;SDS011;9165;45.714;11.362;2023-12-20T06:09:51;5.57;;;3.50;;
18076;SDS011;9165;45.714;11.362;2023-12-20T06:15:30;5.73;;;3.20;;
18076;SDS011;9165;45.714;11.362;2023-12-20T06:18:24;5.87;;;3.20;;
18076;SDS011;9165;45.714;11.362;2023-12-20T06:21:00;4.97;;;3.23;;
18076;SDS011;9165;45.714;11.362;2023-12-20T06:23:37;4.57;;;3.13;;
18076;SDS011;9165;45.714;11.362;2023-12-20T06:26:18;9.63;;;3.80;;
18076;SDS011;9165;45.714;11.362;2023-12-20T06:28:50;8.00;;;3.27;;
18076;SDS011;9165;45.714;11.362;2023-12-20T06:31:43;78.20;;;8.17;;
18076;SDS011;9165;45.714;11.362;2023-12-20T06:34:17;11.03;;;3.73;;
18076;SDS011;9165;45.714;11.362;2023-12-20T06:36:44;7.67;;;4.80;;
18076;SDS011;9165;45.714;11.362;2023-12-20T06:39:13;19.03;;;4.83;;
18076;SDS011;9165;45.714;11.362;2023-12-20T06:41:55;6.83;;;3.73;;
18076;SDS011;9165;45.714;11.362;2023-12-20T06:44:37;122.43;;;16.07;;
18076;SDS011;9165;45.714;11.362;2023-12-20T06:47:13;8.53;;;4.27;;
18076;SDS011;9165;45.714;11.362;2023-12-20T06:49:41;23.30;;;5.60;;
18076;SDS011;9165;45.714;11.362;2023-12-20T07:11:33;7.40;;;4.67;;
18076;SDS011;9165;45.714;11.362;2023-12-20T07:14:05;15.40;;;5.83;;
18076;SDS011;9165;45.714;11.362;2023-12-20T07:16:46;7.90;;;5.20;;
18076;SDS011;9165;45.714;11.362;2023-12-20T07:22:21;6.77;;;4.37;;
18076;SDS011;9165;45.714;11.362;2023-12-20T07:25:48;9.70;;;4.90;;
18076;SDS011;9165;45.714;11.362;2023-12-20T07:28:10;10.07;;;5.23;;
18076;SDS011;9165;45.714;11.362;2023-12-20T07:30:46;12.30;;;6.37;;
18076;SDS011;9165;45.714;11.362;2023-12-20T07:33:32;10.47;;;6.20;;
18076;SDS011;9165;45.714;11.362;2023-12-20T07:36:26;14.13;;;5.83;;
18076;SDS011;9165;45.714;11.362;2023-12-20T08:00:51;12.53;;;6.27;;
18076;SDS011;9165;45.714;11.362;2023-12-20T08:03:51;13.73;;;7.30;;
18076;SDS011;9165;45.714;11.362;2023-12-20T08:06:32;15.00;;;9.17;;
18076;SDS011;9165;45.714;11.362;2023-12-20T08:08:58;13.83;;;10.03;;
18076;SDS011;9165;45.714;11.362;2023-12-20T08:11:25;12.67;;;7.87;;
18076;SDS011;9165;45.714;11.362;2023-12-20T08:13:51;16.40;;;9.23;;
18076;SDS011;9165;45.714;11.362;2023-12-20T08:16:19;16.00;;;8.33;;
18076;SDS011;9165;45.714;11.362;2023-12-20T08:18:46;15.70;;;7.83;;
18076;SDS011;9165;45.714;11.362;2023-12-20T08:21:13;14.83;;;8.17;;
18076;SDS011;9165;45.714;11.362;2023-12-20T08:23:40;21.80;;;9.47;;
18076;SDS011;9165;45.714;11.362;2023-12-20T08:26:06;16.43;;;9.43;;
18076;SDS011;9165;45.714;11.362;2023-12-20T08:28:33;18.07;;;9.50;;
18076;SDS011;9165;45.714;11.362;2023-12-20T08:31:00;13.50;;;8.63;;
18076;SDS011;9165;45.714;11.362;2023-12-20T08:33:27;17.57;;;9.27;;
18076;SDS011;9165;45.714;11.362;2023-12-20T08:35:54;13.87;;;9.10;;
18076;SDS011;9165;45.714;11.362;2023-12-20T08:38:20;14.07;;;9.13;;
18076;SDS011;9165;45.714;11.362;2023-12-20T08:40:47;16.07;;;10.37;;
18076;SDS011;9165;45.714;11.362;2023-12-20T08:43:14;15.00;;;8.53;;
18076;SDS011;9165;45.714;11.362;2023-12-20T08:45:41;15.87;;;10.10;;
18076;SDS011;9165;45.714;11.362;2023-12-20T08:48:07;12.40;;;9.63;;
18076;SDS011;9165;45.714;11.362;2023-12-20T08:50:35;17.77;;;8.87;;
18076;SDS011;9165;45.714;11.362;2023-12-20T08:53:02;13.03;;;8.70;;
18076;SDS011;9165;45.714;11.362;2023-12-20T08:55:29;15.53;;;9.17;;
18076;SDS011;9165;45.714;11.362;2023-12-20T08:57:56;14.80;;;8.97;;
18076;SDS011;9165;45.714;11.362;2023-12-20T09:00:22;17.00;;;7.93;;
18076;SDS011;9165;45.714;11.362;2023-12-20T09:02:52;13.73;;;8.70;;
18076;SDS011;9165;45.714;11.362;2023-12-20T09:05:19;16.13;;;8.90;;
18076;SDS011;9165;45.714;11.362;2023-12-20T09:07:47;15.53;;;8.57;;
18076;SDS011;9165;45.714;11.362;2023-12-20T09:10:13;17.07;;;8.53;;
18076;SDS011;9165;45.714;11.362;2023-12-20T09:12:40;17.73;;;9.30;;
18076;SDS011;9165;45.714;11.362;2023-12-20T09:15:07;21.00;;;9.67;;
18076;SDS011;9165;45.714;11.362;2023-12-20T09:17:34;12.17;;;8.47;;
18076;SDS011;9165;45.714;11.362;2023-12-20T09:20:01;16.80;;;10.47;;
18076;SDS011;9165;45.714;11.362;2023-12-20T09:22:27;16.60;;;9.20;;
18076;SDS011;9165;45.714;11.362;2023-12-20T09:24:55;25.03;;;9.97;;
18076;SDS011;9165;45.714;11.362;2023-12-20T09:27:22;28.20;;;10.60;;
18076;SDS011;9165;45.714;11.362;2023-12-20T09:29:49;20.77;;;8.90;;
18076;SDS011;9165;45.714;11.362;2023-12-20T09:32:15;20.43;;;9.70;;
18076;SDS011;9165;45.714;11.362;2023-12-20T09:34:43;16.17;;;9.20;;
18076;SDS011;9165;45.714;11.362;2023-12-20T09:37:10;13.10;;;8.10;;
18076;SDS011;9165;45.714;11.362;2023-12-20T09:39:36;13.70;;;8.83;;
18076;SDS011;9165;45.714;11.362;2023-12-20T09:42:05;16.60;;;9.57;;
18076;SDS011;9165;45.714;11.362;2023-12-20T09:44:33;18.47;;;9.30;;
18076;SDS011;9165;45.714;11.362;2023-12-20T09:47:01;15.33;;;8.93;;
18076;SDS011;9165;45.714;11.362;2023-12-20T09:49:28;17.73;;;8.57;;
18076;SDS011;9165;45.714;11.362;2023-12-20T09:51:55;18.63;;;8.67;;
18076;SDS011;9165;45.714;11.362;2023-12-20T09:54:23;16.13;;;8.73;;
18076;SDS011;9165;45.714;11.362;2023-12-20T09:56:50;18.90;;;9.77;;
18076;SDS011;9165;45.714;11.362;2023-12-20T09:59:17;15.20;;;8.83;;
18076;SDS011;9165;45.714;11.362;2023-12-20T10:01:44;14.60;;;8.57;;
18076;SDS011;9165;45.714;11.362;2023-12-20T10:04:11;18.67;;;8.70;;
18076;SDS011;9165;45.714;11.362;2023-12-20T10:06:39;13.23;;;8.07;;
18076;SDS011;9165;45.714;11.362;2023-12-20T10:09:05;13.70;;;7.93;;
18076;SDS011;9165;45.714;11.362;2023-12-20T10:11:32;13.87;;;7.73;;
18076;SDS011;9165;45.714;11.362;2023-12-20T10:13:59;12.30;;;8.63;;
18076;SDS011;9165;45.714;11.362;2023-12-20T10:16:27;14.97;;;8.67;;
18076;SDS011;9165;45.714;11.362;2023-12-20T10:18:54;17.53;;;9.03;;
18076;SDS011;9165;45.714;11.362;2023-12-20T10:21:20;13.80;;;8.93;;
18076;SDS011;9165;45.714;11.362;2023-12-20T10:23:47;16.23;;;8.97;;
18076;SDS011;9165;45.714;11.362;2023-12-20T10:26:19;14.83;;;9.10;;
18076;SDS011;9165;45.714;11.362;2023-12-20T10:28:45;15.73;;;9.03;;
18076;SDS011;9165;45.714;11.362;2023-12-20T10:31:20;17.67;;;9.40;;
18076;SDS011;9165;45.714;11.362;2023-12-20T10:33:53;17.60;;;11.03;;
18076;SDS011;9165;45.714;11.362;2023-12-20T10:36:19;20.47;;;11.23;;
18076;SDS011;9165;45.714;11.362;2023-12-20T10:38:46;29.20;;;11.40;;
18076;SDS011;9165;45.714;11.362;2023-12-20T10:41:15;21.53;;;11.80;;
18076;SDS011;9165;45.714;11.362;2023-12-20T10:43:44;26.10;;;13.10;;
18076;SDS011;9165;45.714;11.362;2023-12-20T10:46:11;21.47;;;13.57;;
18076;SDS011;9165;45.714;11.362;2023-12-20T10:48:38;26.93;;;14.97;;
18076;SDS011;9165;45.714;11.362;2023-12-20T10:51:07;23.33;;;14.47;;
18076;SDS011;9165;45.714;11.362;2023-12-20T10:53:34;21.30;;;13.13;;
18076;SDS011;9165;45.714;11.362;2023-12-20T10:56:02;25.13;;;12.30;;
18076;SDS011;9165;45.714;11.362;2023-12-20T10:58:29;22.47;;;14.03;;
18076;SDS011;9165;45.714;11.362;2023-12-20T11:00:59;18.73;;;11.03;;
18076;SDS011;9165;45.714;11.362;2023-12-20T11:03:26;17.60;;;11.23;;
18076;SDS011;9165;45.714;11.362;2023-12-20T11:05:55;20.33;;;12.30;;
18076;SDS011;9165;45.714;11.362;2023-12-20T11:08:27;22.97;;;14.37;;
18076;SDS011;9165;45.714;11.362;2023-12-20T11:10:55;21.30;;;11.63;;
18076;SDS011;9165;45.714;11.362;2023-12-20T11:13:26;24.37;;;12.50;;
18076;SDS011;9165;45.714;11.362;2023-12-20T11:15:54;22.10;;;12.83;;
18076;SDS011;9165;45.714;11.362;2023-12-20T11:18:20;19.70;;;11.43;;
18076;SDS011;9165;45.714;11.362;2023-12-20T11:20:54;21.13;;;11.87;;
18076;SDS011;9165;45.714;11.362;2023-12-20T11:23:21;20.63;;;11.80;;
18076;SDS011;9165;45.714;11.362;2023-12-20T11:25:51;17.23;;;11.23;;
18076;SDS011;9165;45.714;11.362;2023-12-20T11:28:20;22.60;;;13.37;;
18076;SDS011;9165;45.714;11.362;2023-12-20T11:30:47;25.10;;;13.33;;
18076;SDS011;9165;45.714;11.362;2023-12-20T11:33:30;23.57;;;14.37;;
18076;SDS011;9165;45.714;11.362;2023-12-20T11:48:14;23.83;;;14.43;;
18076;SDS011;9165;45.714;11.362;2023-12-20T11:50:44;22.47;;;13.73;;
18076;SDS011;9165;45.714;11.362;2023-12-20T11:53:11;31.13;;;14.67;;
18076;SDS011;9165;45.714;11.362;2023-12-20T11:55:38;21.20;;;13.93;;
18076;SDS011;9165;45.714;11.362;2023-12-20T11:58:04;25.77;;;15.23;;
18076;SDS011;9165;45.714;11.362;2023-12-20T12:00:31;24.07;;;14.63;;
18076;SDS011;9165;45.714;11.362;2023-12-20T12:02:58;23.57;;;14.37;;
18076;SDS011;9165;45.714;11.362;2023-12-20T12:05:26;21.97;;;12.80;;
18076;SDS011;9165;45.714;11.362;2023-12-20T12:07:53;21.23;;;14.47;;
18076;SDS011;9165;45.714;11.362;2023-12-20T12:10:19;21.67;;;14.80;;
18076;SDS011;9165;45.714;11.362;2023-12-20T12:12:49;30.23;;;15.03;;
18076;SDS011;9165;45.714;11.362;2023-12-20T12:15:26;22.07;;;14.63;;
18076;SDS011;9165;45.714;11.362;2023-12-20T12:17:55;25.10;;;14.63;;
18076;SDS011;9165;45.714;11.362;2023-12-20T12:20:35;25.10;;;15.50;;
18076;SDS011;9165;45.714;11.362;2023-12-20T12:23:11;25.57;;;15.00;;
18076;SDS011;9165;45.714;11.362;2023-12-20T12:25:54;25.23;;;14.97;;
18076;SDS011;9165;45.714;11.362;2023-12-20T12:28:21;29.87;;;15.17;;
18076;SDS011;9165;45.714;11.362;2023-12-20T12:40:34;22.50;;;11.50;;
18076;SDS011;9165;45.714;11.362;2023-12-20T12:46:09;22.23;;;11.90;;
18076;SDS011;9165;45.714;11.362;2023-12-20T12:58:46;19.60;;;12.87;;
18076;SDS011;9165;45.714;11.362;2023-12-20T13:01:51;18.00;;;12.33;;
18076;SDS011;9165;45.714;11.362;2023-12-20T13:04:46;20.57;;;12.27;;
18076;SDS011;9165;45.714;11.362;2023-12-20T13:07:47;28.47;;;13.00;;
18076;SDS011;9165;45.714;11.362;2023-12-20T13:13:53;23.43;;;12.97;;
18076;SDS011;9165;45.714;11.362;2023-12-20T13:16:23;21.03;;;11.90;;
18076;SDS011;9165;45.714;11.362;2023-12-20T13:18:53;19.07;;;11.17;;
18076;SDS011;9165;45.714;11.362;2023-12-20T13:21:37;16.20;;;10.33;;
18076;SDS011;9165;45.714;11.362;2023-12-20T13:24:10;13.77;;;8.73;;
18076;SDS011;9165;45.714;11.362;2023-12-20T13:26:37;18.47;;;8.17;;
18076;SDS011;9165;45.714;11.362;2023-12-20T13:29:05;15.83;;;8.73;;
18076;SDS011;9165;45.714;11.362;2023-12-20T13:34:49;12.87;;;8.70;;
18076;SDS011;9165;45.714;11.362;2023-12-20T13:38:35;15.63;;;8.00;;
18076;SDS011;9165;45.714;11.362;2023-12-20T13:40:41;15.30;;;8.63;;
18076;SDS011;9165;45.714;11.362;2023-12-20T13:43:21;17.33;;;9.53;;
18076;SDS011;9165;45.714;11.362;2023-12-20T13:45:53;16.17;;;9.67;;
18076;SDS011;9165;45.714;11.362;2023-12-20T13:48:30;16.87;;;10.87;;
18076;SDS011;9165;45.714;11.362;2023-12-20T13:51:06;20.40;;;12.50;;
18076;SDS011;9165;45.714;11.362;2023-12-20T13:53:34;25.27;;;13.37;;
18076;SDS011;9165;45.714;11.362;2023-12-20T13:56:01;28.40;;;13.20;;
18076;SDS011;9165;45.714;11.362;2023-12-20T13:58:31;27.63;;;14.60;;
18076;SDS011;9165;45.714;11.362;2023-12-20T14:01:07;28.30;;;15.53;;
18076;SDS011;9165;45.714;11.362;2023-12-20T14:03:36;32.90;;;18.53;;
18076;SDS011;9165;45.714;11.362;2023-12-20T14:06:02;26.77;;;16.43;;
18076;SDS011;9165;45.714;11.362;2023-12-20T14:08:29;25.50;;;15.77;;
18076;SDS011;9165;45.714;11.362;2023-12-20T14:10:56;25.67;;;16.33;;
18076;SDS011;9165;45.714;11.362;2023-12-20T14:13:23;25.47;;;15.43;;
18076;SDS011;9165;45.714;11.362;2023-12-20T14:15:49;38.53;;;22.17;;
18076;SDS011;9165;45.714;11.362;2023-12-20T14:18:18;34.83;;;19.77;;
18076;SDS011;9165;45.714;11.362;2023-12-20T14:20:47;34.27;;;18.47;;
18076;SDS011;9165;45.714;11.362;2023-12-20T14:23:19;25.83;;;16.77;;
18076;SDS011;9165;45.714;11.362;2023-12-20T14:25:53;28.83;;;16.73;;
18076;SDS011;9165;45.714;11.362;2023-12-20T14:31:43;30.40;;;17.00;;
18076;SDS011;9165;45.714;11.362;2023-12-20T14:36:56;35.27;;;18.83;;
18076;SDS011;9165;45.714;11.362;2023-12-20T14:39:26;30.00;;;16.17;;
18076;SDS011;9165;45.714;11.362;2023-12-20T14:42:29;23.00;;;15.37;;
18076;SDS011;9165;45.714;11.362;2023-12-20T14:45:07;53.67;;;31.80;;
18076;SDS011;9165;45.714;11.362;2023-12-20T14:48:07;24.33;;;15.77;;
18076;SDS011;9165;45.714;11.362;2023-12-20T14:56:52;23.43;;;14.53;;
18076;SDS011;9165;45.714;11.362;2023-12-20T14:59:19;28.37;;;15.87;;
18076;SDS011;9165;45.714;11.362;2023-12-20T15:01:48;24.30;;;14.60;;
18076;SDS011;9165;45.714;11.362;2023-12-20T15:04:14;22.83;;;14.63;;
18076;SDS011;9165;45.714;11.362;2023-12-20T15:06:41;23.50;;;14.33;;
18076;SDS011;9165;45.714;11.362;2023-12-20T15:09:11;27.50;;;14.47;;
18076;SDS011;9165;45.714;11.362;2023-12-20T15:11:44;26.57;;;14.20;;
18076;SDS011;9165;45.714;11.362;2023-12-20T15:14:12;25.40;;;14.23;;
18076;SDS011;9165;45.714;11.362;2023-12-20T15:16:46;26.57;;;14.67;;
18076;SDS011;9165;45.714;11.362;2023-12-20T15:19:22;29.43;;;16.53;;
18076;SDS011;9165;45.714;11.362;2023-12-20T15:22:01;31.13;;;17.30;;
18076;SDS011;9165;45.714;11.362;2023-12-20T15:24:35;33.83;;;18.27;;
18076;SDS011;9165;45.714;11.362;2023-12-20T15:27:16;27.13;;;17.83;;
18076;SDS011;9165;45.714;11.362;2023-12-20T15:29:50;28.37;;;17.80;;
18076;SDS011;9165;45.714;11.362;2023-12-20T15:32:23;28.67;;;17.13;;
18076;SDS011;9165;45.714;11.362;2023-12-20T15:34:52;27.10;;;17.00;;
18076;SDS011;9165;45.714;11.362;2023-12-20T15:37:22;31.90;;;15.70;;
18076;SDS011;9165;45.714;11.362;2023-12-20T15:39:55;24.07;;;14.53;;
18076;SDS011;9165;45.714;11.362;2023-12-20T15:42:28;25.37;;;13.50;;
18076;SDS011;9165;45.714;11.362;2023-12-20T15:45:02;19.30;;;12.93;;
18076;SDS011;9165;45.714;11.362;2023-12-20T15:47:36;22.10;;;13.63;;
18076;SDS011;9165;45.714;11.362;2023-12-20T15:50:08;24.13;;;14.23;;
18076;SDS011;9165;45.714;11.362;2023-12-20T15:52:35;21.60;;;11.37;;
18076;SDS011;9165;45.714;11.362;2023-12-20T15:55:03;19.90;;;11.33;;
18076;SDS011;9165;45.714;11.362;2023-12-20T15:57:32;22.77;;;12.10;;
18076;SDS011;9165;45.714;11.362;2023-12-20T15:59:59;20.57;;;11.57;;
18076;SDS011;9165;45.714;11.362;2023-12-20T16:02:27;20.47;;;11.87;;
18076;SDS011;9165;45.714;11.362;2023-12-20T16:04:54;21.90;;;11.37;;
18076;SDS011;9165;45.714;11.362;2023-12-20T16:07:20;19.80;;;11.80;;
18076;SDS011;9165;45.714;11.362;2023-12-20T16:09:47;17.73;;;9.77;;
18076;SDS011;9165;45.714;11.362;2023-12-20T16:12:14;19.33;;;10.70;;
18076;SDS011;9165;45.714;11.362;2023-12-20T16:14:41;19.47;;;10.43;;
18076;SDS011;9165;45.714;11.362;2023-12-20T16:17:08;24.33;;;11.83;;
18076;SDS011;9165;45.714;11.362;2023-12-20T16:19:36;16.73;;;10.00;;
18076;SDS011;9165;45.714;11.362;2023-12-20T16:22:06;24.17;;;11.80;;
18076;SDS011;9165;45.714;11.362;2023-12-20T16:24:32;20.37;;;11.57;;
18076;SDS011;9165;45.714;11.362;2023-12-20T16:27:00;18.50;;;12.40;;
18076;SDS011;9165;45.714;11.362;2023-12-20T16:29:27;19.53;;;12.17;;
18076;SDS011;9165;45.714;11.362;2023-12-20T16:31:53;23.67;;;12.03;;
18076;SDS011;9165;45.714;11.362;2023-12-20T16:34:20;19.10;;;11.97;;
18076;SDS011;9165;45.714;11.362;2023-12-20T16:36:51;18.30;;;11.00;;